Time;durP1;ratioP1;P1;durP2;ratioP2;P2;SDS_P1;SDS_P2;PMS_P1;PMS_P2;Temp;Humidity;BMP_temperature;BMP_pressure;BME280_temperature;BME280_humidity;BME280_pressure;Samples;Min_cycle;Max_cycle;Signal;HPM_P1;HPM_P2
2022/12/15 00:39:09;;;;;;;;;1.00;1.00;;;;;16.15;59.24;98274.75;5054729;28;45476;-72
2022/12/15 00:41:35;;;;;;;;;0.00;0.00;;;;;16.10;59.53;98265.22;5057120;28;45318;-71
2022/12/15 00:44:00;;;;;;;;;1.00;1.00;;;;;15.91;60.61;98235.91;5056859;28;46256;-69
2022/12/15 00:50:50;;;;;;;;;2.00;2.00;;;;;15.93;62.39;98253.44;5054000;28;45428;-73
2022/12/15 01:22:00;;;;;;;;;0.00;0.00;;;;;15.01;68.73;98262.84;5053206;28;45413;-68
2022/12/15 01:24:26;;;;;;;;;1.00;1.00;;;;;14.99;67.76;98262.00;5055839;28;45583;-73
2022/12/15 01:26:51;;;;;;;;;0.67;0.67;;;;;14.99;67.84;98259.38;5055897;28;46083;-73
2022/12/15 01:29:17;;;;;;;;;0.00;0.00;;;;;14.94;68.64;98258.66;5056688;28;45347;-66
2022/12/15 01:31:42;;;;;;;;;3.00;3.00;;;;;14.91;68.09;98256.06;5054882;28;45441;-71
2022/12/15 01:34:08;;;;;;;;;2.00;2.00;;;;;14.94;67.23;98249.88;5055770;28;45219;-73
2022/12/15 01:36:34;;;;;;;;;2.00;2.00;;;;;14.87;66.70;98244.75;5055758;28;46170;-72
2022/12/15 01:39:00;;;;;;;;;1.00;1.00;;;;;14.96;66.79;98250.69;5056189;28;45537;-70
2022/12/15 01:41:26;;;;;;;;;2.00;1.00;;;;;14.90;66.61;98247.34;5055319;28;45492;-68
2022/12/15 01:43:52;;;;;;;;;1.00;0.00;;;;;14.94;66.25;98258.66;5055683;28;45757;-74
2022/12/15 01:46:23;;;;;;;;;2.00;2.00;;;;;14.93;66.11;98259.53;5055892;28;45421;-67
2022/12/15 01:49:21;;;;;;;;;1.00;1.00;;;;;14.94;65.94;98261.28;5051632;28;45234;-72
2022/12/15 01:51:51;;;;;;;;;1.00;1.00;;;;;14.96;65.43;98251.59;5047834;28;45371;-72
2022/12/15 01:54:32;;;;;;;;;2.00;1.00;;;;;14.96;65.71;98251.59;5056153;28;45569;-66
2022/12/15 01:57:10;;;;;;;;;0.67;0.00;;;;;14.89;65.44;98244.75;5054366;28;45606;-74
2022/12/15 01:59:42;;;;;;;;;2.00;2.00;;;;;14.79;65.68;98224.84;5053983;28;45549;-66
2022/12/15 02:02:09;;;;;;;;;1.00;1.00;;;;;14.91;65.53;98246.41;5053163;28;45430;-66
2022/12/15 02:04:36;;;;;;;;;0.67;0.67;;;;;14.94;65.61;98253.38;5055917;28;45431;-73
2022/12/15 02:07:02;;;;;;;;;0.00;0.00;;;;;14.94;64.71;98236.72;5055412;28;46215;-66
2022/12/15 02:09:29;;;;;;;;;0.00;0.00;;;;;14.85;64.26;98214.19;5052959;28;45461;-73
2022/12/15 02:12:13;;;;;;;;;1.00;1.00;;;;;14.95;63.95;98220.06;5054841;28;45410;-66
2022/12/15 02:14:50;;;;;;;;;0.00;0.00;;;;;14.97;63.77;98228.78;5054022;28;45492;-66
2022/12/15 02:17:49;;;;;;;;;0.00;0.00;;;;;14.93;64.05;98225.34;5052212;28;45412;-72
2022/12/15 02:20:14;;;;;;;;;1.00;0.67;;;;;14.91;64.29;98230.66;5053676;28;45511;-73
2022/12/15 02:23:27;;;;;;;;;2.00;1.00;;;;;14.89;64.19;98239.47;5055415;28;45489;-69
2022/12/15 02:26:27;;;;;;;;;7.33;6.00;;;;;14.90;64.36;98252.59;5053429;28;45306;-72
2022/12/15 02:29:22;;;;;;;;;6.67;6.00;;;;;14.86;64.66;98257.94;5050828;28;45422;-64
2022/12/15 02:32:05;;;;;;;;;1.00;1.00;;;;;14.84;64.45;98278.13;5049792;28;45564;-66
2022/12/15 02:34:33;;;;;;;;;0.00;0.00;;;;;14.85;65.38;98283.38;5054355;28;45622;-72
2022/12/15 02:37:14;;;;;;;;;0.00;0.00;;;;;14.77;65.88;98269.53;5053573;28;45472;-74
2022/12/15 02:39:40;;;;;;;;;0.00;0.00;;;;;14.82;66.36;98293.09;5052373;28;46222;-70
2022/12/15 02:42:05;;;;;;;;;0.00;0.00;;;;;14.59;66.26;98270.84;5055096;28;45402;-73
2022/12/15 02:44:37;;;;;;;;;0.00;0.00;;;;;14.45;66.18;98268.50;5053435;28;45577;-73
2022/12/15 02:47:26;;;;;;;;;0.00;0.00;;;;;14.76;66.53;98319.50;5055489;28;45491;-70
2022/12/15 02:50:07;;;;;;;;;0.00;0.00;;;;;14.78;66.06;98320.34;5052756;28;46120;-73
2022/12/15 02:52:41;;;;;;;;;2.00;2.00;;;;;14.84;66.01;98321.09;5052732;28;45501;-69
2022/12/15 02:55:07;;;;;;;;;13.50;12.75;;;;;14.87;66.02;98323.63;5055139;28;45311;-66
2022/12/15 02:57:53;;;;;;;;;6.33;6.00;;;;;14.90;66.21;98325.31;5054655;28;45460;-65
2022/12/15 03:00:20;;;;;;;;;6.00;6.00;;;;;14.80;66.11;98306.28;5050356;28;45373;-72
2022/12/15 03:02:52;;;;;;;;;0.67;0.00;;;;;14.66;66.11;98285.56;5054793;28;45317;-65
2022/12/15 03:05:19;;;;;;;;;0.00;0.00;;;;;14.87;66.32;98318.38;5055278;28;45468;-73
2022/12/15 03:07:49;;;;;;;;;1.00;0.00;;;;;14.62;67.56;98298.78;5054071;28;46474;-73
2022/12/15 03:10:15;;;;;;;;;0.00;0.00;;;;;14.75;66.89;98312.53;5054697;28;45464;-66
2022/12/15 03:12:40;;;;;;;;;0.00;0.00;;;;;14.71;67.34;98322.25;5054937;28;45842;-72
2022/12/15 03:15:06;;;;;;;;;0.00;0.00;;;;;14.52;68.06;98295.47;5053908;28;45552;-73
2022/12/15 03:17:32;;;;;;;;;0.00;0.00;;;;;14.59;68.20;98312.03;5055292;28;45515;-66
2022/12/15 03:19:58;;;;;;;;;0.00;0.00;;;;;14.54;69.25;98319.94;5049817;28;45646;-68
2022/12/15 03:22:23;;;;;;;;;0.00;0.00;;;;;14.45;69.61;98317.53;5054443;28;45501;-68
2022/12/15 03:24:49;;;;;;;;;0.00;0.00;;;;;14.36;70.45;98310.69;5054359;28;45357;-73
2022/12/15 03:27:14;;;;;;;;;0.00;0.00;;;;;14.35;70.83;98319.50;5054828;28;45376;-74
2022/12/15 03:29:40;;;;;;;;;0.67;0.00;;;;;14.33;70.64;98310.78;5053459;28;46563;-74
2022/12/15 03:32:05;;;;;;;;;0.33;0.00;;;;;14.36;70.39;98305.44;5052807;28;45523;-66
2022/12/15 03:34:31;;;;;;;;;0.00;0.00;;;;;14.40;69.64;98308.88;5044451;28;45533;-74
2022/12/15 03:36:56;;;;;;;;;0.00;0.00;;;;;14.43;68.96;98301.81;5051745;28;45515;-73
2022/12/15 03:39:22;;;;;;;;;0.00;0.00;;;;;14.44;68.94;98295.66;5055478;28;45368;-74
2022/12/15 03:41:47;;;;;;;;;0.00;0.00;;;;;14.36;68.65;98278.31;5055996;28;45381;-66
2022/12/15 03:44:13;;;;;;;;;0.00;0.00;;;;;14.42;68.53;98284.31;5051576;28;45635;-66
2022/12/15 03:46:38;;;;;;;;;0.00;0.00;;;;;14.41;69.20;98272.09;5051588;28;45420;-73
2022/12/15 03:49:04;;;;;;;;;17.50;13.75;;;;;14.40;69.54;98266.84;5056739;28;45652;-70
2022/12/15 03:51:30;;;;;;;;;2.00;2.00;;;;;14.39;69.49;98268.63;5059016;28;45442;-74
2022/12/15 03:53:57;;;;;;;;;3.67;3.00;;;;;14.38;69.26;98268.66;5059226;28;45445;-74
2022/12/15 03:56:23;;;;;;;;;2.00;2.00;;;;;14.38;69.13;98263.41;5059420;28;45859;-73
2022/12/15 03:58:49;;;;;;;;;4.33;4.00;;;;;14.37;69.10;98254.66;5058261;28;45471;-73
2022/12/15 04:01:20;;;;;;;;;8.33;7.00;;;;;14.37;69.42;98254.66;5051407;28;45528;-74
2022/12/15 04:03:46;;;;;;;;;1.00;1.00;;;;;14.23;70.22;98240.97;5051520;28;45405;-66
2022/12/15 04:06:11;;;;;;;;;0.00;0.00;;;;;14.21;71.04;98259.38;5042824;28;47639;-67
2022/12/15 04:08:37;;;;;;;;;1.33;0.33;;;;;14.11;70.96;98231.59;5054945;28;45346;-73
2022/12/15 04:11:03;;;;;;;;;0.33;0.00;;;;;14.16;71.22;98239.38;5047424;28;45560;-73
2022/12/15 04:13:28;;;;;;;;;0.00;0.00;;;;;14.13;71.07;98243.78;5058887;28;45337;-72
2022/12/15 04:15:54;;;;;;;;;1.00;1.00;;;;;13.76;72.52;98198.22;5058954;28;45567;-69
2022/12/15 04:18:19;;;;;;;;;4.00;4.00;;;;;14.03;71.81;98244.88;5057324;28;45432;-66
2022/12/15 04:20:45;;;;;;;;;2.00;2.00;;;;;14.03;72.10;98255.38;5058674;28;45586;-74
2022/12/15 04:23:10;;;;;;;;;1.00;1.00;;;;;14.00;72.21;98249.31;5054821;28;45460;-74
2022/12/15 05:31:57;;;;;;;;;1.00;1.00;;;;;13.78;69.32;98234.00;5058243;28;45465;-67
2022/12/15 05:34:26;;;;;;;;;1.00;1.00;;;;;13.79;69.79;98232.28;5042159;28;46081;-74
2022/12/15 05:36:53;;;;;;;;;1.00;1.00;;;;;13.58;69.82;98197.69;5048925;28;45249;-66
2022/12/15 05:39:20;;;;;;;;;1.00;1.00;;;;;13.79;69.90;98237.53;5050930;28;45334;-74
2022/12/15 05:41:45;;;;;;;;;1.00;1.00;;;;;13.78;69.71;98239.25;5057828;28;45476;-66
2022/12/15 05:44:11;;;;;;;;;1.00;1.00;;;;;13.80;69.81;98241.88;5056538;28;45717;-66
2022/12/15 05:46:37;;;;;;;;;0.33;0.00;;;;;13.78;69.95;98235.78;5057828;28;45367;-66
2022/12/15 05:49:07;;;;;;;;;1.00;0.00;;;;;13.76;69.89;98243.69;5057458;28;45404;-67
2022/12/15 05:51:37;;;;;;;;;0.00;0.00;;;;;13.69;70.83;98253.44;5053578;28;45421;-66
2022/12/15 05:54:03;;;;;;;;;3.00;1.00;;;;;13.60;71.70;98250.13;5052539;28;46164;-67
2022/12/15 05:56:28;;;;;;;;;0.67;0.67;;;;;13.46;71.93;98242.50;5045836;28;45603;-74
2022/12/15 05:58:56;;;;;;;;;1.00;1.00;;;;;13.31;72.90;98247.16;5045206;28;45251;-69
2022/12/15 06:01:23;;;;;;;;;0.00;0.00;;;;;13.21;73.03;98248.19;5054058;28;45461;-67
2022/12/15 06:03:48;;;;;;;;;1.00;0.00;;;;;12.44;72.57;98115.00;5057344;28;45569;-66
2022/12/15 06:06:14;;;;;;;;;0.00;0.00;;;;;13.11;72.66;98236.09;5040787;28;45481;-66
2022/12/15 06:08:41;;;;;;;;;16.25;16.00;;;;;13.01;73.45;98237.16;5058243;28;46231;-66
2022/12/15 06:11:08;;;;;;;;;5.00;5.00;;;;;12.91;73.61;98239.94;5056280;28;45524;-74
2022/12/15 06:13:34;;;;;;;;;4.00;4.00;;;;;12.83;74.10;98240.94;5056835;28;46092;-74
2022/12/15 06:16:04;;;;;;;;;3.00;2.33;;;;;12.74;74.24;98247.22;5056906;28;45515;-74
2022/12/15 06:18:33;;;;;;;;;1.33;1.00;;;;;12.68;74.63;98249.91;5057176;28;45469;-75
2022/12/15 06:21:06;;;;;;;;;3.00;2.00;;;;;12.63;74.69;98247.34;5056197;28;45488;-67
2022/12/15 06:23:33;;;;;;;;;2.33;2.00;;;;;12.58;74.91;98256.19;5056328;28;45397;-73
2022/12/15 06:26:07;;;;;;;;;3.00;2.67;;;;;12.53;75.24;98259.75;5056829;28;45441;-74
2022/12/15 06:28:32;;;;;;;;;3.00;2.00;;;;;12.50;74.95;98257.16;5056241;28;45511;-66
2022/12/15 06:31:02;;;;;;;;;3.00;3.00;;;;;12.52;74.68;98254.53;5056664;28;45406;-66
2022/12/15 06:33:29;;;;;;;;;1.00;1.00;;;;;12.57;74.48;98255.31;5056632;28;45520;-66
2022/12/15 06:35:54;;;;;;;;;0.67;0.67;;;;;12.41;74.33;98222.38;5043065;28;46242;-66
2022/12/15 06:38:20;;;;;;;;;0.00;0.00;;;;;12.61;73.75;98256.13;5054391;28;45396;-66
2022/12/15 06:40:54;;;;;;;;;0.33;0.00;;;;;12.63;73.66;98251.72;5051831;28;45600;-66
2022/12/15 06:43:20;;;;;;;;;2.00;1.67;;;;;12.64;73.20;98256.09;5047777;28;46122;-66
2022/12/15 06:45:49;;;;;;;;;0.00;0.00;;;;;12.63;72.81;98244.72;5056105;28;45476;-66
2022/12/15 06:48:15;;;;;;;;;0.00;0.00;;;;;12.63;72.71;98247.34;5052945;28;45341;-66
2022/12/15 06:50:41;;;;;;;;;1.33;1.33;;;;;12.63;73.00;98249.13;5044331;28;45346;-66
2022/12/15 06:53:06;;;;;;;;;1.00;1.00;;;;;12.60;72.44;98241.31;5056542;28;46075;-67
2022/12/15 06:55:32;;;;;;;;;0.67;0.67;;;;;12.61;72.56;98248.28;5056514;28;45805;-66
2022/12/15 06:57:57;;;;;;;;;1.00;1.00;;;;;12.60;72.67;98250.03;5055901;28;45287;-66
2022/12/15 07:00:23;;;;;;;;;28.00;24.25;;;;;12.62;72.24;98250.88;5056572;28;45296;-66
2022/12/15 07:02:48;;;;;;;;;34.00;31.50;;;;;12.61;72.13;98259.59;5056339;28;45537;-66
2022/12/15 07:05:14;;;;;;;;;17.75;14.00;;;;;12.60;71.83;98254.41;5042241;28;45874;-66
2022/12/15 07:07:39;;;;;;;;;4.67;4.00;;;;;12.59;72.22;98264.00;5052613;28;45569;-66
2022/12/15 07:10:05;;;;;;;;;6.00;5.00;;;;;12.58;71.90;98259.66;5037148;28;45430;-66
2022/12/15 07:12:31;;;;;;;;;3.00;2.00;;;;;12.57;71.55;98265.78;5051989;28;46112;-67
2022/12/15 07:14:57;;;;;;;;;2.67;2.00;;;;;12.52;71.97;98259.75;5042183;28;45296;-66
2022/12/15 07:17:23;;;;;;;;;33.00;30.75;;;;;12.48;72.30;98258.06;5052935;28;45481;-66
2022/12/15 07:19:48;;;;;;;;;25.75;24.75;;;;;12.45;72.01;98264.19;5056658;28;45351;-66
2022/12/15 07:22:14;;;;;;;;;23.25;23.00;;;;;12.43;72.13;98263.34;5056260;28;45383;-66
2022/12/15 07:24:40;;;;;;;;;12.00;11.25;;;;;12.23;72.15;98240.06;5058179;28;45494;-71
2022/12/15 07:27:05;;;;;;;;;8.00;8.00;;;;;12.43;71.49;98276.44;5056678;28;45568;-71
2022/12/15 07:29:31;;;;;;;;;32.00;30.50;;;;;12.45;71.76;98274.69;5059629;28;45412;-68
2022/12/15 07:31:57;;;;;;;;;22.50;20.75;;;;;12.48;70.95;98272.03;5056723;28;45481;-68
2022/12/15 07:34:22;;;;;;;;;10.50;10.50;;;;;12.46;70.91;98270.31;5056447;28;45502;-67
2022/12/15 07:36:48;;;;;;;;;4.33;4.00;;;;;12.34;70.65;98253.03;5059072;28;45371;-70
2022/12/15 07:39:14;;;;;;;;;3.00;3.00;;;;;12.53;70.05;98285.94;5058997;28;47105;-65
2022/12/15 07:41:40;;;;;;;;;7.00;6.00;;;;;12.54;70.14;98287.66;5056780;28;46227;-69
2022/12/15 07:44:06;;;;;;;;;11.00;9.25;;;;;12.55;69.83;98278.03;5058424;28;45592;-65
2022/12/15 07:46:31;;;;;;;;;16.75;16.00;;;;;12.60;69.86;98284.09;5056481;28;45872;-65
2022/12/15 07:48:57;;;;;;;;;13.00;10.50;;;;;12.65;69.34;98295.38;5058915;28;45414;-65
2022/12/15 07:51:23;;;;;;;;;4.00;4.00;;;;;12.70;69.76;98296.16;5058219;28;45460;-66
2022/12/15 07:53:49;;;;;;;;;24.75;22.75;;;;;12.74;69.05;98289.97;5057777;28;45472;-65
2022/12/15 07:56:16;;;;;;;;;34.75;27.50;;;;;12.86;68.92;98307.28;5057399;28;45491;-74
2022/12/15 07:58:43;;;;;;;;;11.25;10.00;;;;;12.93;68.79;98310.66;5058916;28;45590;-73
2022/12/15 08:01:11;;;;;;;;;29.75;26.25;;;;;12.98;69.13;98308.84;5058449;28;46206;-66
2022/12/15 08:03:37;;;;;;;;;34.25;32.25;;;;;12.85;68.97;98287.22;5057982;28;45443;-75
2022/12/15 08:06:13;;;;;;;;;17.25;16.50;;;;;12.97;68.26;98296.63;5061169;28;45944;-74
2022/12/15 08:08:40;;;;;;;;;22.00;20.25;;;;;13.20;67.60;98311.97;5056894;28;45522;-71
2022/12/15 08:11:08;;;;;;;;;10.33;9.00;;;;;13.34;67.35;98306.53;5056129;28;45356;-71
2022/12/15 08:13:34;;;;;;;;;8.67;7.67;;;;;13.47;66.94;98309.81;5048435;28;45496;-67
2022/12/15 08:16:00;;;;;;;;;10.00;8.67;;;;;13.60;65.99;98316.56;5058834;28;45345;-73
2022/12/15 08:18:26;;;;;;;;;15.25;14.50;;;;;13.72;65.79;98315.47;5057668;28;45476;-65
2022/12/15 08:20:51;;;;;;;;;15.25;14.75;;;;;13.80;65.56;98317.97;5058197;28;46002;-70
2022/12/15 08:23:17;;;;;;;;;13.33;12.00;;;;;13.88;65.13;98316.91;5057817;28;45554;-71
2022/12/15 08:25:42;;;;;;;;;26.75;23.50;;;;;13.93;65.08;98316.84;5058035;28;45466;-66
2022/12/15 08:28:08;;;;;;;;;5.00;4.67;;;;;13.98;64.42;98317.59;5058327;28;45553;-70
2022/12/15 08:30:34;;;;;;;;;8.00;7.00;;;;;14.03;63.74;98318.38;5058155;28;46217;-66
2022/12/15 08:33:01;;;;;;;;;9.00;8.00;;;;;14.05;64.20;98316.59;5056687;28;45358;-67
2022/12/15 08:35:26;;;;;;;;;7.00;6.50;;;;;14.10;63.73;98316.50;5041121;28;45469;-67
2022/12/15 08:37:52;;;;;;;;;9.00;8.67;;;;;14.19;62.96;98312.84;5050326;28;45430;-70
2022/12/15 08:40:17;;;;;;;;;16.75;14.00;;;;;14.21;63.17;98321.56;5057834;28;45553;-66
2022/12/15 08:42:43;;;;;;;;;7.67;7.00;;;;;14.00;63.63;98273.81;5057727;28;45456;-66
2022/12/15 08:45:10;;;;;;;;;11.25;10.50;;;;;14.29;63.29;98325.75;5057587;28;45508;-66
2022/12/15 08:47:35;;;;;;;;;12.00;10.25;;;;;14.23;62.61;98304.84;5055661;28;45492;-67
2022/12/15 08:50:01;;;;;;;;;13.75;13.50;;;;;14.42;62.90;98331.59;5056312;28;46167;-73
2022/12/15 08:52:26;;;;;;;;;17.00;12.75;;;;;14.49;62.62;98333.19;5055066;28;45602;-69
2022/12/15 08:54:52;;;;;;;;;48.25;33.25;;;;;14.52;62.19;98329.63;5057091;28;45438;-67
2022/12/15 08:57:18;;;;;;;;;16.00;13.00;;;;;14.62;62.12;98327.69;5057269;28;45373;-73
2022/12/15 08:59:43;;;;;;;;;11.75;9.75;;;;;14.66;61.68;98334.63;5056001;28;45546;-75
2022/12/15 09:02:11;;;;;;;;;5.00;5.00;;;;;14.57;62.04;98309.41;5058230;28;45533;-75
2022/12/15 09:04:37;;;;;;;;;3.67;3.67;;;;;14.80;61.31;98332.56;5058026;28;45503;-67
2022/12/15 09:07:03;;;;;;;;;5.00;4.00;;;;;14.87;60.72;98339.41;5056905;28;45307;-69
2022/12/15 09:09:29;;;;;;;;;4.00;4.00;;;;;14.91;60.66;98333.16;5058064;28;45484;-66
2022/12/15 09:11:54;;;;;;;;;7.00;7.00;;;;;14.98;61.12;98338.28;5053071;28;45387;-71
2022/12/15 09:14:20;;;;;;;;;6.00;5.67;;;;;15.02;60.99;98342.56;5057728;28;45327;-75
2022/12/15 09:16:46;;;;;;;;;6.00;5.67;;;;;15.07;60.08;98343.34;5073252;28;45390;-70
2022/12/15 09:19:12;;;;;;;;;16.75;13.50;;;;;15.11;59.79;98347.63;5057729;28;46133;-73
2022/12/15 09:21:38;;;;;;;;;9.33;8.67;;;;;15.20;59.83;98357.94;5042184;28;45512;-73
2022/12/15 09:24:04;;;;;;;;;12.00;9.00;;;;;15.23;59.33;98362.25;5056970;28;45453;-73
2022/12/15 09:26:32;;;;;;;;;4.67;3.00;;;;;15.19;58.98;98345.66;5057433;28;45543;-66
2022/12/15 09:28:58;;;;;;;;;8.33;7.00;;;;;15.24;59.77;98359.59;5057719;28;45417;-66
2022/12/15 09:31:30;;;;;;;;;11.67;9.33;;;;;15.26;59.17;98356.91;5042220;28;45373;-74
2022/12/15 09:33:57;;;;;;;;;8.67;8.00;;;;;15.34;58.45;98365.50;5038268;28;45576;-66
2022/12/15 09:36:23;;;;;;;;;5.00;4.00;;;;;15.41;57.78;98367.06;5046610;28;45913;-66
2022/12/15 09:38:49;;;;;;;;;7.67;7.00;;;;;15.42;58.16;98373.16;5058066;28;45382;-73
2022/12/15 09:41:14;;;;;;;;;13.50;12.25;;;;;15.42;57.91;98373.16;5056849;28;45434;-69
2022/12/15 09:43:55;;;;;;;;;9.00;8.00;;;;;15.42;58.08;98376.69;5056373;28;45533;-72
2022/12/15 09:46:45;;;;;;;;;12.67;10.67;;;;;15.42;58.14;98366.16;5057825;28;45582;-74
2022/12/15 09:49:29;;;;;;;;;11.67;11.33;;;;;15.40;58.28;98365.34;5056988;28;46046;-67
2022/12/15 09:52:23;;;;;;;;;10.67;10.00;;;;;15.38;58.05;98369.78;5057258;28;45343;-67
2022/12/15 09:54:49;;;;;;;;;20.67;14.00;;;;;15.38;58.07;98366.25;5056602;28;45886;-68
2022/12/15 09:57:15;;;;;;;;;8.33;8.00;;;;;15.34;58.11;98364.59;5041967;28;45483;-68
2022/12/15 09:59:56;;;;;;;;;8.33;8.33;;;;;15.32;58.19;98373.41;5049432;28;45442;-66
2022/12/15 10:02:46;;;;;;;;;9.00;7.00;;;;;15.32;58.20;98367.28;5052160;28;45377;-66
2022/12/15 10:05:29;;;;;;;;;8.00;6.00;;;;;15.33;58.46;98366.38;5042719;28;45587;-67
2022/12/15 10:07:58;;;;;;;;;7.33;6.00;;;;;15.24;58.47;98361.34;5057352;28;45211;-66
2022/12/15 10:10:31;;;;;;;;;6.00;6.00;;;;;15.40;58.22;98369.72;5056825;28;46066;-66
2022/12/15 10:13:06;;;;;;;;;7.00;6.67;;;;;15.50;58.21;98377.38;5051906;28;45864;-73
2022/12/15 10:15:44;;;;;;;;;8.33;6.67;;;;;15.58;58.06;98366.66;5054302;28;45359;-73
2022/12/15 10:18:13;;;;;;;;;7.00;7.00;;;;;15.71;57.61;98369.81;5057476;28;45385;-74
2022/12/15 10:20:38;;;;;;;;;6.33;6.33;;;;;15.85;57.03;98377.41;5056846;28;45334;-74
2022/12/15 10:23:13;;;;;;;;;7.00;5.33;;;;;15.96;57.00;98366.59;5057552;28;45515;-74
2022/12/15 10:25:43;;;;;;;;;10.67;9.67;;;;;15.98;56.77;98365.63;5037745;28;45480;-72
2022/12/15 10:28:32;;;;;;;;;8.33;6.67;;;;;16.01;56.66;98376.06;5046402;28;45323;-74
2022/12/15 10:31:02;;;;;;;;;6.67;6.33;;;;;16.05;56.08;98364.56;5055924;28;46136;-73
2022/12/15 10:33:35;;;;;;;;;6.00;6.00;;;;;16.04;55.95;98338.28;5072049;28;45489;-70
2022/12/15 10:36:00;;;;;;;;;9.33;8.00;;;;;16.30;56.02;98370.00;5056591;28;45333;-74
2022/12/15 10:38:33;;;;;;;;;16.33;12.67;;;;;16.42;55.78;98367.94;5054861;28;45490;-66
2022/12/15 10:41:05;;;;;;;;;9.00;8.00;;;;;16.54;55.49;98372.88;5056689;28;46392;-72
2022/12/15 10:43:39;;;;;;;;;13.00;11.67;;;;;16.60;55.25;98366.56;5055684;28;45456;-73
2022/12/15 10:46:07;;;;;;;;;8.67;7.67;;;;;16.67;55.58;98363.69;5072389;28;45488;-72
2022/12/15 10:48:34;;;;;;;;;8.00;7.67;;;;;16.77;55.25;98363.41;5056164;28;45576;-72
2022/12/15 10:51:14;;;;;;;;;7.00;6.00;;;;;16.85;55.04;98364.94;5036676;28;46323;-74
2022/12/15 10:54:13;;;;;;;;;4.00;4.00;;;;;16.92;54.38;98362.97;5036192;28;46435;-74
2022/12/15 10:56:52;;;;;;;;;7.33;7.00;;;;;17.00;54.15;98360.97;5055177;28;45471;-66
2022/12/15 10:59:30;;;;;;;;;4.00;4.00;;;;;16.92;53.30;98323.41;5040719;28;45509;-74
2022/12/15 11:02:24;;;;;;;;;8.00;7.33;;;;;17.26;53.61;98360.13;5056354;28;45440;-72
2022/12/15 11:05:15;;;;;;;;;6.00;6.00;;;;;17.40;52.48;98350.91;5055915;28;45307;-73
2022/12/15 11:07:45;;;;;;;;;6.00;5.67;;;;;17.56;51.57;98349.47;5054431;28;45533;-73
2022/12/15 11:10:26;;;;;;;;;6.67;6.67;;;;;17.64;52.05;98349.22;5056380;28;45330;-74
2022/12/15 11:13:09;;;;;;;;;5.67;5.00;;;;;17.80;51.20;98345.13;5052816;28;46116;-73
2022/12/15 11:15:40;;;;;;;;;6.00;6.00;;;;;18.02;50.75;98336.50;5042651;28;46092;-66
2022/12/15 11:18:10;;;;;;;;;4.00;4.00;;;;;18.26;50.40;98345.31;5036779;28;45541;-67
2022/12/15 11:20:54;;;;;;;;;6.00;5.00;;;;;18.46;50.26;98340.19;5050774;28;45610;-68
2022/12/15 11:23:58;;;;;;;;;2.67;2.67;;;;;18.65;50.10;98336.81;5040944;28;46025;-67
2022/12/15 11:26:57;;;;;;;;;2.00;2.00;;;;;18.75;49.41;98327.63;5056487;28;45524;-67
2022/12/15 11:29:45;;;;;;;;;4.00;3.67;;;;;18.80;49.79;98335.38;5056252;28;45483;-68
2022/12/15 11:32:12;;;;;;;;;8.00;7.33;;;;;18.84;49.45;98324.66;5040946;28;45374;-69
2022/12/15 11:34:43;;;;;;;;;7.00;6.00;;;;;18.89;48.70;98329.75;5055624;28;46187;-68
2022/12/15 11:37:30;;;;;;;;;14.33;12.67;;;;;18.87;49.30;98329.81;5055948;28;45530;-67
2022/12/15 11:40:17;;;;;;;;;11.67;10.67;;;;;18.85;48.86;98326.38;5040710;28;45568;-67
2022/12/15 11:42:51;;;;;;;;;10.33;9.33;;;;;18.85;49.01;98322.88;5044933;28;45517;-69
2022/12/15 11:45:39;;;;;;;;;13.33;12.00;;;;;18.86;48.69;98321.91;5051965;28;45584;-67
2022/12/15 11:48:13;;;;;;;;;9.33;8.00;;;;;18.90;49.08;98325.31;5055134;28;45527;-68
2022/12/15 11:51:10;;;;;;;;;2.33;2.33;;;;;18.94;48.76;98322.50;5056083;28;45376;-67
2022/12/15 11:53:53;;;;;;;;;2.00;1.67;;;;;18.98;49.30;98310.00;5055346;28;45446;-66
2022/12/15 11:56:32;;;;;;;;;1.00;1.00;;;;;19.00;49.10;98294.91;5055795;28;45450;-67
2022/12/15 11:59:09;;;;;;;;;1.00;1.00;;;;;19.40;48.27;98319.78;5056115;28;45491;-67
2022/12/15 12:01:41;;;;;;;;;2.67;2.00;;;;;19.49;47.87;98324.66;5056168;28;45408;-66
2022/12/15 12:04:29;;;;;;;;;1.00;1.00;;;;;19.52;47.68;98321.91;5055389;28;45426;-66
2022/12/15 12:07:19;;;;;;;;;3.33;3.33;;;;;19.57;46.44;98319.06;5053817;28;45575;-66
2022/12/15 12:09:53;;;;;;;;;3.67;3.00;;;;;19.44;46.78;98316.94;5041582;28;45466;-67
2022/12/15 12:12:28;;;;;;;;;6.00;5.00;;;;;19.41;47.39;98316.19;5055228;28;45353;-72
2022/12/15 12:15:10;;;;;;;;;3.00;2.67;;;;;19.31;47.54;98317.50;5058285;28;45356;-67
2022/12/15 12:17:44;;;;;;;;;1.33;1.33;;;;;19.27;48.36;98322.06;5058160;28;46242;-67
2022/12/15 12:20:21;;;;;;;;;3.00;3.00;;;;;19.19;48.35;98326.81;5057861;28;45449;-67
2022/12/15 12:23:12;;;;;;;;;5.00;4.00;;;;;19.04;48.23;98325.66;5058666;28;45568;-72
2022/12/15 12:26:10;;;;;;;;;5.00;5.00;;;;;18.93;48.37;98325.22;5058342;28;45548;-66
2022/12/15 12:28:56;;;;;;;;;1.00;1.00;;;;;18.63;48.56;98299.00;5055129;28;46025;-68
2022/12/15 12:31:35;;;;;;;;;0.67;0.67;;;;;18.44;48.15;98327.91;5044381;28;45395;-67
2022/12/15 12:34:12;;;;;;;;;2.00;1.00;;;;;18.34;49.57;98322.09;5058699;28;45377;-67
2022/12/15 12:36:41;;;;;;;;;1.00;0.00;;;;;18.15;50.42;98308.72;5058721;28;45447;-67
2022/12/15 12:39:17;;;;;;;;;0.67;0.67;;;;;18.20;51.11;98329.69;5044593;28;46030;-66
2022/12/15 12:41:59;;;;;;;;;0.67;0.67;;;;;18.12;51.17;98323.81;5053937;28;45496;-69
2022/12/15 12:44:36;;;;;;;;;1.67;1.67;;;;;17.70;51.49;98270.66;5047621;28;45485;-68
2022/12/15 12:47:16;;;;;;;;;0.67;0.67;;;;;17.89;51.78;98315.81;5058636;28;45544;-75
2022/12/15 12:49:47;;;;;;;;;0.33;0.33;;;;;17.91;51.90;98330.75;5043485;28;45474;-75
2022/12/15 12:52:37;;;;;;;;;1.00;0.00;;;;;17.69;52.50;98334.97;5057894;28;45521;-75
2022/12/15 12:55:23;;;;;;;;;0.00;0.00;;;;;17.56;52.66;98335.44;5042295;28;45445;-74
2022/12/15 12:57:49;;;;;;;;;0.00;0.00;;;;;17.49;52.62;98326.88;5045463;28;45517;-69
2022/12/15 13:00:17;;;;;;;;;0.33;0.33;;;;;17.45;52.47;98341.94;5057131;28;45363;-71
2022/12/15 13:03:26;;;;;;;;;0.00;0.00;;;;;17.32;53.31;98340.59;5048625;28;45325;-69
2022/12/15 13:05:53;;;;;;;;;0.00;0.00;;;;;17.27;53.68;98347.81;5046132;28;45532;-72
2022/12/15 13:08:27;;;;;;;;;0.00;0.00;;;;;17.21;54.08;98348.00;5056860;28;45527;-70
2022/12/15 13:10:54;;;;;;;;;0.00;0.00;;;;;17.18;55.33;98354.25;5057266;28;46280;-74
2022/12/15 13:13:29;;;;;;;;;0.00;0.00;;;;;17.12;56.32;98353.59;5056515;28;46354;-70
2022/12/15 13:16:05;;;;;;;;;0.33;0.33;;;;;17.15;56.44;98357.00;5042424;28;45429;-74
2022/12/15 13:19:02;;;;;;;;;1.00;0.67;;;;;17.04;58.05;98356.47;5057726;28;45369;-73
2022/12/15 13:24:40;;;;;;;;;0.00;0.00;;;;;16.92;58.09;98367.41;5057530;28;45480;-72
2022/12/15 13:27:12;;;;;;;;;0.00;0.00;;;;;16.90;57.94;98365.66;5057568;28;45543;-74
2022/12/15 13:29:56;;;;;;;;;0.00;0.00;;;;;16.82;57.71;98358.91;5057787;28;45558;-74
2022/12/15 13:32:42;;;;;;;;;0.67;0.00;;;;;16.52;57.78;98315.84;5046779;28;46039;-74
2022/12/15 13:35:11;;;;;;;;;2.00;2.00;;;;;16.78;58.02;98360.72;5054895;28;45448;-74
2022/12/15 13:38:01;;;;;;;;;1.00;1.00;;;;;16.81;57.50;98358.03;5057650;28;45390;-68
2022/12/15 13:40:48;;;;;;;;;1.00;1.00;;;;;16.88;57.81;98363.97;5044414;28;45399;-74
2022/12/15 13:43:26;;;;;;;;;0.00;0.00;;;;;16.96;56.93;98361.13;5041121;28;46091;-66
2022/12/15 13:45:59;;;;;;;;;0.00;0.00;;;;;16.99;56.08;98368.91;5056273;28;45417;-66
2022/12/15 13:48:33;;;;;;;;;3.00;1.00;;;;;16.99;56.27;98361.88;5057031;28;45538;-66
2022/12/15 13:51:11;;;;;;;;;0.00;0.00;;;;;17.01;56.56;98364.44;5057589;28;45378;-66
2022/12/15 13:53:43;;;;;;;;;1.00;0.00;;;;;17.20;56.52;98365.59;5057273;28;45467;-66
2022/12/15 13:56:30;;;;;;;;;4.00;3.00;;;;;17.30;56.55;98359.13;5057287;28;45460;-66
2022/12/15 13:59:04;;;;;;;;;1.00;1.00;;;;;17.36;56.55;98362.47;5056892;28;45642;-66
2022/12/15 14:01:30;;;;;;;;;0.00;0.00;;;;;17.35;56.38;98358.09;5046874;28;45465;-73
2022/12/15 14:04:11;;;;;;;;;1.00;0.00;;;;;17.30;56.97;98374.09;5050335;28;45437;-66
2022/12/15 14:06:44;;;;;;;;;1.67;1.67;;;;;17.28;55.90;98368.84;5055683;28;45422;-67
2022/12/15 14:09:14;;;;;;;;;0.00;0.00;;;;;17.25;55.72;98376.03;5051320;28;45529;-66
2022/12/15 14:11:42;;;;;;;;;0.00;0.00;;;;;17.15;56.05;98377.22;5056254;28;45438;-67
2022/12/15 14:14:17;;;;;;;;;0.00;0.00;;;;;17.12;56.80;98377.31;5056422;28;45374;-66